sensor_id;sensor_type;location;lat;lon;timestamp;P1;durP1;ratioP1;P2;durP2;ratioP2
22417;SDS011;11376;50.932;4.442;2023-04-27T00:01:33;12.67;;;5.97;;
22417;SDS011;11376;50.932;4.442;2023-04-27T00:03:58;12.10;;;6.00;;
22417;SDS011;11376;50.932;4.442;2023-04-27T00:06:24;14.53;;;6.00;;
22417;SDS011;11376;50.932;4.442;2023-04-27T00:08:51;13.93;;;6.30;;
22417;SDS011;11376;50.932;4.442;2023-04-27T00:11:17;13.10;;;6.10;;
22417;SDS011;11376;50.932;4.442;2023-04-27T00:13:42;11.43;;;6.07;;
22417;SDS011;11376;50.932;4.442;2023-04-27T00:16:08;14.50;;;6.30;;
22417;SDS011;11376;50.932;4.442;2023-04-27T00:18:33;12.00;;;6.43;;
22417;SDS011;11376;50.932;4.442;2023-04-27T00:20:59;14.93;;;6.00;;
22417;SDS011;11376;50.932;4.442;2023-04-27T00:23:25;12.00;;;5.77;;
22417;SDS011;11376;50.932;4.442;2023-04-27T00:25:51;17.10;;;6.50;;
22417;SDS011;11376;50.932;4.442;2023-04-27T00:28:17;14.57;;;5.97;;
22417;SDS011;11376;50.932;4.442;2023-04-27T00:30:43;13.80;;;6.33;;
22417;SDS011;11376;50.932;4.442;2023-04-27T00:33:09;13.00;;;6.13;;
22417;SDS011;11376;50.932;4.442;2023-04-27T00:35:34;11.70;;;6.03;;
22417;SDS011;11376;50.932;4.442;2023-04-27T00:38:00;13.67;;;6.47;;
22417;SDS011;11376;50.932;4.442;2023-04-27T00:40:26;12.20;;;5.80;;
22417;SDS011;11376;50.932;4.442;2023-04-27T00:42:51;11.70;;;6.37;;
22417;SDS011;11376;50.932;4.442;2023-04-27T00:45:17;16.33;;;6.90;;
22417;SDS011;11376;50.932;4.442;2023-04-27T00:47:43;13.23;;;6.40;;
22417;SDS011;11376;50.932;4.442;2023-04-27T00:50:09;12.90;;;6.73;;
22417;SDS011;11376;50.932;4.442;2023-04-27T00:52:36;15.67;;;6.90;;
22417;SDS011;11376;50.932;4.442;2023-04-27T00:55:02;16.43;;;7.67;;
22417;SDS011;11376;50.932;4.442;2023-04-27T00:57:29;15.03;;;7.27;;
22417;SDS011;11376;50.932;4.442;2023-04-27T00:59:55;13.97;;;7.27;;
22417;SDS011;11376;50.932;4.442;2023-04-27T01:02:21;15.80;;;7.03;;
22417;SDS011;11376;50.932;4.442;2023-04-27T01:04:47;13.77;;;7.20;;
22417;SDS011;11376;50.932;4.442;2023-04-27T01:07:14;14.73;;;7.20;;
22417;SDS011;11376;50.932;4.442;2023-04-27T01:09:41;14.87;;;7.80;;
22417;SDS011;11376;50.932;4.442;2023-04-27T01:12:06;16.17;;;7.60;;
22417;SDS011;11376;50.932;4.442;2023-04-27T01:14:32;15.23;;;8.03;;
22417;SDS011;11376;50.932;4.442;2023-04-27T01:16:59;15.53;;;7.70;;
22417;SDS011;11376;50.932;4.442;2023-04-27T01:19:25;17.23;;;7.97;;
22417;SDS011;11376;50.932;4.442;2023-04-27T01:21:51;14.93;;;7.43;;
22417;SDS011;11376;50.932;4.442;2023-04-27T01:24:16;14.63;;;7.73;;
22417;SDS011;11376;50.932;4.442;2023-04-27T01:26:42;14.43;;;7.47;;
22417;SDS011;11376;50.932;4.442;2023-04-27T01:29:07;13.93;;;7.70;;
22417;SDS011;11376;50.932;4.442;2023-04-27T01:31:33;16.50;;;8.00;;
22417;SDS011;11376;50.932;4.442;2023-04-27T01:33:59;16.70;;;7.77;;
22417;SDS011;11376;50.932;4.442;2023-04-27T01:36:24;18.40;;;7.77;;
22417;SDS011;11376;50.932;4.442;2023-04-27T01:38:51;17.73;;;7.47;;
22417;SDS011;11376;50.932;4.442;2023-04-27T01:41:17;17.17;;;7.77;;
22417;SDS011;11376;50.932;4.442;2023-04-27T01:43:42;15.93;;;7.53;;
22417;SDS011;11376;50.932;4.442;2023-04-27T01:46:09;17.07;;;7.93;;
22417;SDS011;11376;50.932;4.442;2023-04-27T01:48:36;13.23;;;7.07;;
22417;SDS011;11376;50.932;4.442;2023-04-27T01:51:03;16.30;;;8.03;;
22417;SDS011;11376;50.932;4.442;2023-04-27T01:53:29;18.70;;;7.87;;
22417;SDS011;11376;50.932;4.442;2023-04-27T01:55:55;16.10;;;7.40;;
22417;SDS011;11376;50.932;4.442;2023-04-27T01:58:20;18.77;;;7.50;;
22417;SDS011;11376;50.932;4.442;2023-04-27T02:00:46;15.90;;;7.43;;
22417;SDS011;11376;50.932;4.442;2023-04-27T02:03:12;16.90;;;8.17;;
22417;SDS011;11376;50.932;4.442;2023-04-27T02:05:37;16.50;;;7.87;;
22417;SDS011;11376;50.932;4.442;2023-04-27T02:08:03;16.33;;;7.90;;
22417;SDS011;11376;50.932;4.442;2023-04-27T02:10:29;15.07;;;7.23;;
22417;SDS011;11376;50.932;4.442;2023-04-27T02:12:54;17.83;;;7.60;;
22417;SDS011;11376;50.932;4.442;2023-04-27T02:15:21;16.93;;;7.67;;
22417;SDS011;11376;50.932;4.442;2023-04-27T02:17:46;18.37;;;7.13;;
22417;SDS011;11376;50.932;4.442;2023-04-27T02:20:12;17.50;;;7.23;;
22417;SDS011;11376;50.932;4.442;2023-04-27T02:22:41;16.93;;;8.07;;
22417;SDS011;11376;50.932;4.442;2023-04-27T02:25:08;19.63;;;8.30;;
22417;SDS011;11376;50.932;4.442;2023-04-27T02:27:37;18.60;;;7.33;;
22417;SDS011;11376;50.932;4.442;2023-04-27T02:30:07;16.93;;;7.63;;
22417;SDS011;11376;50.932;4.442;2023-04-27T02:32:34;16.50;;;8.10;;
22417;SDS011;11376;50.932;4.442;2023-04-27T02:35:00;16.67;;;7.73;;
22417;SDS011;11376;50.932;4.442;2023-04-27T02:37:26;18.77;;;7.87;;
22417;SDS011;11376;50.932;4.442;2023-04-27T02:39:52;16.57;;;7.53;;
22417;SDS011;11376;50.932;4.442;2023-04-27T02:42:17;18.30;;;8.07;;
22417;SDS011;11376;50.932;4.442;2023-04-27T02:44:43;15.90;;;7.97;;
22417;SDS011;11376;50.932;4.442;2023-04-27T02:47:09;18.63;;;8.40;;
22417;SDS011;11376;50.932;4.442;2023-04-27T02:49:35;20.27;;;7.67;;
22417;SDS011;11376;50.932;4.442;2023-04-27T02:52:01;19.17;;;7.93;;
22417;SDS011;11376;50.932;4.442;2023-04-27T02:54:27;17.20;;;8.30;;
22417;SDS011;11376;50.932;4.442;2023-04-27T02:56:53;17.63;;;8.20;;
22417;SDS011;11376;50.932;4.442;2023-04-27T02:59:18;16.37;;;8.00;;
22417;SDS011;11376;50.932;4.442;2023-04-27T03:01:44;18.23;;;8.00;;
22417;SDS011;11376;50.932;4.442;2023-04-27T03:04:10;21.23;;;7.97;;
22417;SDS011;11376;50.932;4.442;2023-04-27T03:06:38;21.90;;;8.87;;
22417;SDS011;11376;50.932;4.442;2023-04-27T03:09:05;16.03;;;8.07;;
22417;SDS011;11376;50.932;4.442;2023-04-27T03:11:31;17.20;;;8.37;;
22417;SDS011;11376;50.932;4.442;2023-04-27T03:13:56;17.23;;;8.40;;
22417;SDS011;11376;50.932;4.442;2023-04-27T03:16:22;19.67;;;9.10;;
22417;SDS011;11376;50.932;4.442;2023-04-27T03:18:48;18.70;;;7.73;;
22417;SDS011;11376;50.932;4.442;2023-04-27T03:21:13;17.03;;;7.97;;
22417;SDS011;11376;50.932;4.442;2023-04-27T03:23:41;15.43;;;8.13;;
22417;SDS011;11376;50.932;4.442;2023-04-27T03:26:07;17.80;;;7.97;;
22417;SDS011;11376;50.932;4.442;2023-04-27T03:28:34;18.80;;;8.67;;
22417;SDS011;11376;50.932;4.442;2023-04-27T03:31:04;16.97;;;8.47;;
22417;SDS011;11376;50.932;4.442;2023-04-27T03:33:34;18.17;;;8.03;;
22417;SDS011;11376;50.932;4.442;2023-04-27T03:36:00;19.87;;;8.83;;
22417;SDS011;11376;50.932;4.442;2023-04-27T03:38:27;17.33;;;8.87;;
22417;SDS011;11376;50.932;4.442;2023-04-27T03:40:52;21.90;;;9.23;;
22417;SDS011;11376;50.932;4.442;2023-04-27T03:43:19;19.43;;;8.97;;
22417;SDS011;11376;50.932;4.442;2023-04-27T03:45:46;17.07;;;9.03;;
22417;SDS011;11376;50.932;4.442;2023-04-27T03:48:12;20.03;;;9.33;;
22417;SDS011;11376;50.932;4.442;2023-04-27T03:50:38;20.87;;;9.17;;
22417;SDS011;11376;50.932;4.442;2023-04-27T03:53:04;18.37;;;9.00;;
22417;SDS011;11376;50.932;4.442;2023-04-27T03:55:30;20.63;;;9.90;;
22417;SDS011;11376;50.932;4.442;2023-04-27T03:57:56;20.27;;;9.20;;
22417;SDS011;11376;50.932;4.442;2023-04-27T04:00:22;17.60;;;9.37;;
22417;SDS011;11376;50.932;4.442;2023-04-27T04:02:47;22.20;;;9.50;;
22417;SDS011;11376;50.932;4.442;2023-04-27T04:05:13;19.40;;;9.23;;
22417;SDS011;11376;50.932;4.442;2023-04-27T04:07:39;22.10;;;9.80;;
22417;SDS011;11376;50.932;4.442;2023-04-27T04:10:08;24.03;;;10.27;;
22417;SDS011;11376;50.932;4.442;2023-04-27T04:12:34;23.83;;;10.90;;
22417;SDS011;11376;50.932;4.442;2023-04-27T04:15:01;22.03;;;10.70;;
22417;SDS011;11376;50.932;4.442;2023-04-27T04:17:30;26.73;;;10.63;;
22417;SDS011;11376;50.932;4.442;2023-04-27T04:19:57;21.73;;;9.67;;
22417;SDS011;11376;50.932;4.442;2023-04-27T04:22:26;22.40;;;10.80;;
22417;SDS011;11376;50.932;4.442;2023-04-27T04:24:51;22.40;;;10.47;;
22417;SDS011;11376;50.932;4.442;2023-04-27T04:27:17;22.00;;;11.20;;
22417;SDS011;11376;50.932;4.442;2023-04-27T04:29:43;20.63;;;10.67;;
22417;SDS011;11376;50.932;4.442;2023-04-27T04:32:09;20.43;;;10.43;;
22417;SDS011;11376;50.932;4.442;2023-04-27T04:34:36;23.90;;;10.80;;
22417;SDS011;11376;50.932;4.442;2023-04-27T04:37:02;22.47;;;10.33;;
22417;SDS011;11376;50.932;4.442;2023-04-27T04:39:31;21.67;;;10.63;;
22417;SDS011;11376;50.932;4.442;2023-04-27T04:41:57;24.37;;;11.20;;
22417;SDS011;11376;50.932;4.442;2023-04-27T04:44:23;23.40;;;10.03;;
22417;SDS011;11376;50.932;4.442;2023-04-27T04:46:49;24.23;;;11.37;;
22417;SDS011;11376;50.932;4.442;2023-04-27T04:49:15;23.03;;;10.80;;
22417;SDS011;11376;50.932;4.442;2023-04-27T04:51:44;22.40;;;10.50;;
22417;SDS011;11376;50.932;4.442;2023-04-27T04:54:10;25.97;;;10.60;;
22417;SDS011;11376;50.932;4.442;2023-04-27T04:56:35;24.77;;;11.33;;
22417;SDS011;11376;50.932;4.442;2023-04-27T04:59:01;23.43;;;11.00;;
22417;SDS011;11376;50.932;4.442;2023-04-27T05:01:27;27.77;;;12.03;;
22417;SDS011;11376;50.932;4.442;2023-04-27T05:03:53;25.63;;;10.60;;
22417;SDS011;11376;50.932;4.442;2023-04-27T05:06:19;24.10;;;10.67;;
22417;SDS011;11376;50.932;4.442;2023-04-27T05:08:45;22.47;;;10.27;;
22417;SDS011;11376;50.932;4.442;2023-04-27T05:11:10;21.67;;;10.17;;
22417;SDS011;11376;50.932;4.442;2023-04-27T05:13:36;19.00;;;10.10;;
22417;SDS011;11376;50.932;4.442;2023-04-27T05:16:04;20.23;;;10.53;;
22417;SDS011;11376;50.932;4.442;2023-04-27T05:18:31;21.70;;;10.63;;
22417;SDS011;11376;50.932;4.442;2023-04-27T05:20:57;19.33;;;9.67;;
22417;SDS011;11376;50.932;4.442;2023-04-27T05:23:22;23.77;;;9.43;;
22417;SDS011;11376;50.932;4.442;2023-04-27T05:25:48;20.67;;;9.63;;
22417;SDS011;11376;50.932;4.442;2023-04-27T05:28:14;19.20;;;9.77;;
22417;SDS011;11376;50.932;4.442;2023-04-27T05:30:40;20.30;;;9.53;;
22417;SDS011;11376;50.932;4.442;2023-04-27T05:33:05;17.73;;;9.27;;
22417;SDS011;11376;50.932;4.442;2023-04-27T05:35:31;19.87;;;9.03;;
22417;SDS011;11376;50.932;4.442;2023-04-27T05:37:57;18.67;;;8.70;;
22417;SDS011;11376;50.932;4.442;2023-04-27T05:40:23;17.73;;;9.40;;
22417;SDS011;11376;50.932;4.442;2023-04-27T05:42:49;20.13;;;9.40;;
22417;SDS011;11376;50.932;4.442;2023-04-27T05:45:15;17.60;;;8.87;;
22417;SDS011;11376;50.932;4.442;2023-04-27T05:47:41;17.97;;;8.53;;
22417;SDS011;11376;50.932;4.442;2023-04-27T05:50:07;20.60;;;8.70;;
22417;SDS011;11376;50.932;4.442;2023-04-27T05:55:55;17.50;;;8.80;;
22417;SDS011;11376;50.932;4.442;2023-04-27T05:58:23;21.20;;;9.07;;
22417;SDS011;11376;50.932;4.442;2023-04-27T06:00:49;20.53;;;8.60;;
22417;SDS011;11376;50.932;4.442;2023-04-27T06:03:15;17.60;;;8.83;;
22417;SDS011;11376;50.932;4.442;2023-04-27T06:05:40;18.67;;;8.57;;
22417;SDS011;11376;50.932;4.442;2023-04-27T06:08:06;16.87;;;8.20;;
22417;SDS011;11376;50.932;4.442;2023-04-27T06:10:32;16.90;;;8.27;;
22417;SDS011;11376;50.932;4.442;2023-04-27T06:12:57;18.63;;;8.73;;
22417;SDS011;11376;50.932;4.442;2023-04-27T06:15:23;14.60;;;7.90;;
22417;SDS011;11376;50.932;4.442;2023-04-27T06:17:49;17.93;;;8.60;;
22417;SDS011;11376;50.932;4.442;2023-04-27T06:20:14;16.00;;;7.90;;
22417;SDS011;11376;50.932;4.442;2023-04-27T06:22:40;17.80;;;7.93;;
22417;SDS011;11376;50.932;4.442;2023-04-27T06:25:06;13.47;;;7.23;;
22417;SDS011;11376;50.932;4.442;2023-04-27T06:27:32;17.93;;;7.87;;
22417;SDS011;11376;50.932;4.442;2023-04-27T06:29:58;18.77;;;7.77;;
22417;SDS011;11376;50.932;4.442;2023-04-27T06:32:24;19.50;;;8.03;;
22417;SDS011;11376;50.932;4.442;2023-04-27T06:34:50;15.87;;;8.83;;
22417;SDS011;11376;50.932;4.442;2023-04-27T06:37:15;15.53;;;8.13;;
22417;SDS011;11376;50.932;4.442;2023-04-27T06:39:44;17.03;;;7.90;;
22417;SDS011;11376;50.932;4.442;2023-04-27T06:42:10;15.57;;;7.60;;
22417;SDS011;11376;50.932;4.442;2023-04-27T06:44:36;14.90;;;7.67;;
22417;SDS011;11376;50.932;4.442;2023-04-27T06:47:02;14.70;;;7.43;;
22417;SDS011;11376;50.932;4.442;2023-04-27T06:49:28;18.40;;;7.67;;
22417;SDS011;11376;50.932;4.442;2023-04-27T06:51:54;17.10;;;6.80;;
22417;SDS011;11376;50.932;4.442;2023-04-27T06:54:19;18.73;;;7.80;;
22417;SDS011;11376;50.932;4.442;2023-04-27T06:56:45;15.20;;;7.53;;
22417;SDS011;11376;50.932;4.442;2023-04-27T06:59:11;19.20;;;7.17;;
22417;SDS011;11376;50.932;4.442;2023-04-27T07:01:36;15.67;;;7.17;;
22417;SDS011;11376;50.932;4.442;2023-04-27T07:04:02;13.20;;;7.43;;
22417;SDS011;11376;50.932;4.442;2023-04-27T07:06:29;15.97;;;7.23;;
22417;SDS011;11376;50.932;4.442;2023-04-27T07:08:55;15.13;;;7.53;;
22417;SDS011;11376;50.932;4.442;2023-04-27T07:11:21;15.87;;;7.37;;
22417;SDS011;11376;50.932;4.442;2023-04-27T07:13:47;14.07;;;7.47;;
22417;SDS011;11376;50.932;4.442;2023-04-27T07:16:12;13.77;;;7.50;;
22417;SDS011;11376;50.932;4.442;2023-04-27T07:18:39;14.40;;;7.23;;
22417;SDS011;11376;50.932;4.442;2023-04-27T07:21:05;17.33;;;7.40;;
22417;SDS011;11376;50.932;4.442;2023-04-27T07:23:31;15.80;;;7.47;;
22417;SDS011;11376;50.932;4.442;2023-04-27T07:25:56;13.97;;;7.23;;
22417;SDS011;11376;50.932;4.442;2023-04-27T07:28:22;14.73;;;7.23;;
22417;SDS011;11376;50.932;4.442;2023-04-27T07:30:48;17.90;;;8.03;;
22417;SDS011;11376;50.932;4.442;2023-04-27T07:33:14;15.00;;;7.53;;
22417;SDS011;11376;50.932;4.442;2023-04-27T07:35:40;16.57;;;7.90;;
22417;SDS011;11376;50.932;4.442;2023-04-27T07:38:06;14.67;;;7.73;;
22417;SDS011;11376;50.932;4.442;2023-04-27T07:40:32;17.97;;;8.33;;
22417;SDS011;11376;50.932;4.442;2023-04-27T07:42:58;18.87;;;8.50;;
22417;SDS011;11376;50.932;4.442;2023-04-27T07:45:24;15.77;;;8.30;;
22417;SDS011;11376;50.932;4.442;2023-04-27T07:47:57;17.07;;;8.83;;
22417;SDS011;11376;50.932;4.442;2023-04-27T07:50:24;17.63;;;9.17;;
22417;SDS011;11376;50.932;4.442;2023-04-27T07:52:51;19.83;;;9.60;;
22417;SDS011;11376;50.932;4.442;2023-04-27T07:55:18;19.07;;;9.03;;
22417;SDS011;11376;50.932;4.442;2023-04-27T07:57:45;20.90;;;8.97;;
22417;SDS011;11376;50.932;4.442;2023-04-27T08:00:11;17.50;;;8.90;;
22417;SDS011;11376;50.932;4.442;2023-04-27T08:02:37;19.20;;;10.13;;
22417;SDS011;11376;50.932;4.442;2023-04-27T08:05:02;21.53;;;9.70;;
22417;SDS011;11376;50.932;4.442;2023-04-27T08:07:28;19.43;;;10.33;;
22417;SDS011;11376;50.932;4.442;2023-04-27T08:09:54;22.20;;;10.13;;
22417;SDS011;11376;50.932;4.442;2023-04-27T08:12:20;19.83;;;10.53;;
22417;SDS011;11376;50.932;4.442;2023-04-27T08:14:45;21.83;;;9.83;;
22417;SDS011;11376;50.932;4.442;2023-04-27T08:17:11;19.67;;;10.30;;
22417;SDS011;11376;50.932;4.442;2023-04-27T08:19:37;19.50;;;9.93;;
22417;SDS011;11376;50.932;4.442;2023-04-27T08:22:02;17.77;;;9.77;;
22417;SDS011;11376;50.932;4.442;2023-04-27T08:24:28;14.80;;;9.27;;
22417;SDS011;11376;50.932;4.442;2023-04-27T08:26:54;19.10;;;8.83;;
22417;SDS011;11376;50.932;4.442;2023-04-27T08:29:20;20.10;;;10.10;;
22417;SDS011;11376;50.932;4.442;2023-04-27T08:31:46;17.20;;;9.57;;
22417;SDS011;11376;50.932;4.442;2023-04-27T08:34:12;19.60;;;9.57;;
22417;SDS011;11376;50.932;4.442;2023-04-27T08:36:38;17.60;;;9.53;;
22417;SDS011;11376;50.932;4.442;2023-04-27T08:39:03;16.57;;;8.90;;
22417;SDS011;11376;50.932;4.442;2023-04-27T08:41:33;16.40;;;8.57;;
22417;SDS011;11376;50.932;4.442;2023-04-27T08:43:58;17.75;;;8.70;;
22417;SDS011;11376;50.932;4.442;2023-04-27T08:46:24;15.47;;;8.20;;
22417;SDS011;11376;50.932;4.442;2023-04-27T08:48:53;19.00;;;8.63;;
22417;SDS011;11376;50.932;4.442;2023-04-27T08:51:19;17.90;;;8.87;;
22417;SDS011;11376;50.932;4.442;2023-04-27T08:53:49;17.75;;;9.10;;
22417;SDS011;11376;50.932;4.442;2023-04-27T08:56:20;18.10;;;8.23;;
22417;SDS011;11376;50.932;4.442;2023-04-27T08:58:47;15.45;;;8.48;;
22417;SDS011;11376;50.932;4.442;2023-04-27T09:01:13;18.58;;;8.07;;
22417;SDS011;11376;50.932;4.442;2023-04-27T09:03:40;16.67;;;8.35;;
22417;SDS011;11376;50.932;4.442;2023-04-27T09:06:06;16.17;;;7.95;;
22417;SDS011;11376;50.932;4.442;2023-04-27T09:11:14;18.13;;;8.55;;
22417;SDS011;11376;50.932;4.442;2023-04-27T09:13:41;14.68;;;7.97;;
22417;SDS011;11376;50.932;4.442;2023-04-27T09:16:09;14.60;;;7.68;;
22417;SDS011;11376;50.932;4.442;2023-04-27T09:18:39;13.35;;;7.45;;
22417;SDS011;11376;50.932;4.442;2023-04-27T09:21:06;14.82;;;7.57;;
22417;SDS011;11376;50.932;4.442;2023-04-27T09:23:36;13.57;;;7.30;;
22417;SDS011;11376;50.932;4.442;2023-04-27T09:26:03;13.27;;;6.97;;
22417;SDS011;11376;50.932;4.442;2023-04-27T09:28:34;13.25;;;7.25;;
22417;SDS011;11376;50.932;4.442;2023-04-27T09:31:02;11.18;;;6.82;;
22417;SDS011;11376;50.932;4.442;2023-04-27T09:33:29;13.75;;;6.63;;
22417;SDS011;11376;50.932;4.442;2023-04-27T09:35:57;16.65;;;7.85;;
22417;SDS011;11376;50.932;4.442;2023-04-27T09:38:25;16.10;;;7.15;;
22417;SDS011;11376;50.932;4.442;2023-04-27T09:40:51;13.95;;;7.20;;
22417;SDS011;11376;50.932;4.442;2023-04-27T09:48:10;17.90;;;7.13;;
22417;SDS011;11376;50.932;4.442;2023-04-27T09:50:41;14.77;;;6.93;;
22417;SDS011;11376;50.932;4.442;2023-04-27T09:53:08;17.30;;;7.40;;
22417;SDS011;11376;50.932;4.442;2023-04-27T10:09:24;14.48;;;6.50;;
22417;SDS011;11376;50.932;4.442;2023-04-27T10:11:52;13.32;;;6.13;;
22417;SDS011;11376;50.932;4.442;2023-04-27T10:14:19;13.15;;;6.40;;
22417;SDS011;11376;50.932;4.442;2023-04-27T10:16:49;13.32;;;6.50;;
22417;SDS011;11376;50.932;4.442;2023-04-27T10:19:19;11.02;;;6.47;;
22417;SDS011;11376;50.932;4.442;2023-04-27T10:21:50;10.02;;;6.28;;
22417;SDS011;11376;50.932;4.442;2023-04-27T10:24:17;11.77;;;6.60;;
22417;SDS011;11376;50.932;4.442;2023-04-27T10:26:46;15.05;;;7.30;;
22417;SDS011;11376;50.932;4.442;2023-04-27T10:29:12;12.95;;;7.30;;
22417;SDS011;11376;50.932;4.442;2023-04-27T10:31:43;12.50;;;6.50;;
22417;SDS011;11376;50.932;4.442;2023-04-27T10:54:09;9.77;;;5.68;;
22417;SDS011;11376;50.932;4.442;2023-04-27T11:35:51;9.82;;;5.68;;
22417;SDS011;11376;50.932;4.442;2023-04-27T11:38:17;10.23;;;6.20;;
22417;SDS011;11376;50.932;4.442;2023-04-27T11:40:43;10.20;;;6.20;;
22417;SDS011;11376;50.932;4.442;2023-04-27T11:43:26;9.32;;;5.85;;
22417;SDS011;11376;50.932;4.442;2023-04-27T11:45:52;12.00;;;6.38;;
22417;SDS011;11376;50.932;4.442;2023-04-27T11:48:19;9.88;;;6.20;;
22417;SDS011;11376;50.932;4.442;2023-04-27T11:50:47;11.43;;;6.25;;
22417;SDS011;11376;50.932;4.442;2023-04-27T11:53:13;9.68;;;5.80;;
22417;SDS011;11376;50.932;4.442;2023-04-27T11:55:40;10.35;;;6.43;;
22417;SDS011;11376;50.932;4.442;2023-04-27T11:58:15;9.25;;;5.80;;
22417;SDS011;11376;50.932;4.442;2023-04-27T12:00:41;10.25;;;5.85;;
22417;SDS011;11376;50.932;4.442;2023-04-27T12:03:06;8.73;;;5.70;;
22417;SDS011;11376;50.932;4.442;2023-04-27T12:05:32;9.02;;;5.50;;
22417;SDS011;11376;50.932;4.442;2023-04-27T12:07:59;10.15;;;5.97;;
22417;SDS011;11376;50.932;4.442;2023-04-27T12:10:24;9.57;;;5.50;;
22417;SDS011;11376;50.932;4.442;2023-04-27T12:12:50;8.27;;;5.43;;
22417;SDS011;11376;50.932;4.442;2023-04-27T12:15:16;9.15;;;5.15;;
22417;SDS011;11376;50.932;4.442;2023-04-27T12:17:41;9.00;;;5.60;;
22417;SDS011;11376;50.932;4.442;2023-04-27T12:20:07;9.80;;;6.00;;
22417;SDS011;11376;50.932;4.442;2023-04-27T12:22:33;8.02;;;5.50;;
22417;SDS011;11376;50.932;4.442;2023-04-27T12:24:59;10.85;;;5.70;;
22417;SDS011;11376;50.932;4.442;2023-04-27T12:27:25;8.38;;;5.68;;
22417;SDS011;11376;50.932;4.442;2023-04-27T12:29:51;9.15;;;5.60;;
22417;SDS011;11376;50.932;4.442;2023-04-27T12:32:18;7.40;;;5.10;;
22417;SDS011;11376;50.932;4.442;2023-04-27T12:34:44;9.02;;;6.03;;
22417;SDS011;11376;50.932;4.442;2023-04-27T12:37:10;9.15;;;6.20;;
22417;SDS011;11376;50.932;4.442;2023-04-27T12:39:36;11.88;;;6.97;;
22417;SDS011;11376;50.932;4.442;2023-04-27T12:42:02;9.88;;;6.35;;
22417;SDS011;11376;50.932;4.442;2023-04-27T12:44:28;8.35;;;5.75;;
22417;SDS011;11376;50.932;4.442;2023-04-27T12:46:54;8.23;;;5.43;;
22417;SDS011;11376;50.932;4.442;2023-04-27T12:49:20;9.30;;;5.90;;
22417;SDS011;11376;50.932;4.442;2023-04-27T12:51:46;9.10;;;6.03;;
22417;SDS011;11376;50.932;4.442;2023-04-27T12:54:15;10.60;;;6.20;;
22417;SDS011;11376;50.932;4.442;2023-04-27T12:56:41;8.63;;;6.22;;
22417;SDS011;11376;50.932;4.442;2023-04-27T12:59:06;8.98;;;6.63;;
22417;SDS011;11376;50.932;4.442;2023-04-27T13:01:32;11.27;;;6.72;;
22417;SDS011;11376;50.932;4.442;2023-04-27T13:03:58;10.27;;;6.85;;
22417;SDS011;11376;50.932;4.442;2023-04-27T13:06:25;11.93;;;7.15;;
22417;SDS011;11376;50.932;4.442;2023-04-27T13:08:51;11.50;;;8.63;;
22417;SDS011;11376;50.932;4.442;2023-04-27T13:11:17;8.95;;;6.50;;
22417;SDS011;11376;50.932;4.442;2023-04-27T13:13:43;10.45;;;6.13;;
22417;SDS011;11376;50.932;4.442;2023-04-27T13:16:09;9.88;;;5.80;;
22417;SDS011;11376;50.932;4.442;2023-04-27T13:18:36;11.02;;;5.72;;
22417;SDS011;11376;50.932;4.442;2023-04-27T13:21:02;9.65;;;6.20;;
22417;SDS011;11376;50.932;4.442;2023-04-27T13:23:29;9.38;;;5.88;;
22417;SDS011;11376;50.932;4.442;2023-04-27T13:25:56;8.93;;;6.38;;
22417;SDS011;11376;50.932;4.442;2023-04-27T13:28:21;8.70;;;5.53;;
22417;SDS011;11376;50.932;4.442;2023-04-27T13:30:47;10.30;;;6.82;;
22417;SDS011;11376;50.932;4.442;2023-04-27T13:33:13;9.93;;;6.88;;
22417;SDS011;11376;50.932;4.442;2023-04-27T13:35:40;9.88;;;6.75;;
22417;SDS011;11376;50.932;4.442;2023-04-27T13:38:06;12.68;;;7.03;;
22417;SDS011;11376;50.932;4.442;2023-04-27T13:40:31;10.73;;;7.25;;
22417;SDS011;11376;50.932;4.442;2023-04-27T13:42:57;10.25;;;7.55;;
22417;SDS011;11376;50.932;4.442;2023-04-27T13:45:23;9.43;;;6.65;;
22417;SDS011;11376;50.932;4.442;2023-04-27T13:47:48;10.68;;;7.43;;
22417;SDS011;11376;50.932;4.442;2023-04-27T13:50:14;9.80;;;7.00;;
22417;SDS011;11376;50.932;4.442;2023-04-27T13:52:40;13.20;;;7.53;;
22417;SDS011;11376;50.932;4.442;2023-04-27T13:55:06;11.35;;;7.22;;
22417;SDS011;11376;50.932;4.442;2023-04-27T13:57:33;11.45;;;6.57;;
22417;SDS011;11376;50.932;4.442;2023-04-27T14:00:00;11.48;;;6.75;;
22417;SDS011;11376;50.932;4.442;2023-04-27T14:02:29;9.65;;;6.75;;
22417;SDS011;11376;50.932;4.442;2023-04-27T14:04:55;13.60;;;6.47;;
22417;SDS011;11376;50.932;4.442;2023-04-27T14:07:22;10.20;;;6.55;;
22417;SDS011;11376;50.932;4.442;2023-04-27T14:09:48;9.85;;;6.35;;
22417;SDS011;11376;50.932;4.442;2023-04-27T14:12:13;11.15;;;6.60;;
22417;SDS011;11376;50.932;4.442;2023-04-27T14:14:39;8.35;;;5.95;;
22417;SDS011;11376;50.932;4.442;2023-04-27T14:17:05;9.80;;;6.50;;
22417;SDS011;11376;50.932;4.442;2023-04-27T14:19:31;9.15;;;5.72;;
22417;SDS011;11376;50.932;4.442;2023-04-27T14:21:57;8.70;;;5.95;;
22417;SDS011;11376;50.932;4.442;2023-04-27T14:24:24;10.55;;;6.00;;
22417;SDS011;11376;50.932;4.442;2023-04-27T14:26:50;10.27;;;6.20;;
22417;SDS011;11376;50.932;4.442;2023-04-27T14:29:16;9.15;;;6.50;;
22417;SDS011;11376;50.932;4.442;2023-04-27T14:31:42;11.45;;;7.10;;
22417;SDS011;11376;50.932;4.442;2023-04-27T14:34:08;12.70;;;6.65;;
22417;SDS011;11376;50.932;4.442;2023-04-27T14:36:34;9.70;;;6.60;;
22417;SDS011;11376;50.932;4.442;2023-04-27T14:39:01;10.25;;;6.45;;
22417;SDS011;11376;50.932;4.442;2023-04-27T14:41:28;10.35;;;7.25;;
22417;SDS011;11376;50.932;4.442;2023-04-27T14:43:54;11.15;;;6.78;;
22417;SDS011;11376;50.932;4.442;2023-04-27T14:46:20;9.85;;;6.28;;
22417;SDS011;11376;50.932;4.442;2023-04-27T14:48:45;11.52;;;7.03;;
22417;SDS011;11376;50.932;4.442;2023-04-27T14:51:12;10.88;;;7.00;;
22417;SDS011;11376;50.932;4.442;2023-04-27T14:53:38;11.63;;;6.38;;
22417;SDS011;11376;50.932;4.442;2023-04-27T14:56:04;10.07;;;6.40;;
22417;SDS011;11376;50.932;4.442;2023-04-27T14:58:30;9.60;;;6.20;;
22417;SDS011;11376;50.932;4.442;2023-04-27T15:00:59;11.05;;;6.43;;
22417;SDS011;11376;50.932;4.442;2023-04-27T15:03:25;15.63;;;7.50;;
22417;SDS011;11376;50.932;4.442;2023-04-27T15:05:51;13.63;;;7.18;;
22417;SDS011;11376;50.932;4.442;2023-04-27T15:08:17;12.73;;;7.10;;
22417;SDS011;11376;50.932;4.442;2023-04-27T15:10:42;12.27;;;7.10;;
22417;SDS011;11376;50.932;4.442;2023-04-27T15:13:08;12.63;;;7.07;;
22417;SDS011;11376;50.932;4.442;2023-04-27T15:15:34;11.75;;;7.93;;
22417;SDS011;11376;50.932;4.442;2023-04-27T15:18:00;12.48;;;6.57;;
22417;SDS011;11376;50.932;4.442;2023-04-27T15:20:26;12.02;;;6.65;;
22417;SDS011;11376;50.932;4.442;2023-04-27T15:22:51;12.65;;;7.03;;
22417;SDS011;11376;50.932;4.442;2023-04-27T15:25:17;11.57;;;6.43;;
22417;SDS011;11376;50.932;4.442;2023-04-27T15:27:43;15.73;;;6.90;;
22417;SDS011;11376;50.932;4.442;2023-04-27T15:30:08;14.82;;;6.45;;
22417;SDS011;11376;50.932;4.442;2023-04-27T15:32:35;11.65;;;6.55;;
22417;SDS011;11376;50.932;4.442;2023-04-27T15:35:00;16.00;;;7.07;;
22417;SDS011;11376;50.932;4.442;2023-04-27T15:37:26;14.30;;;7.07;;
22417;SDS011;11376;50.932;4.442;2023-04-27T15:39:55;12.73;;;7.40;;
22417;SDS011;11376;50.932;4.442;2023-04-27T15:42:22;12.07;;;6.80;;
22417;SDS011;11376;50.932;4.442;2023-04-27T15:44:48;11.70;;;6.93;;
22417;SDS011;11376;50.932;4.442;2023-04-27T15:47:13;12.00;;;7.28;;
22417;SDS011;11376;50.932;4.442;2023-04-27T15:49:39;13.23;;;7.03;;
22417;SDS011;11376;50.932;4.442;2023-04-27T15:52:05;12.13;;;7.90;;
22417;SDS011;11376;50.932;4.442;2023-04-27T15:54:31;13.75;;;7.38;;